Time;durP1;ratioP1;P1;durP2;ratioP2;P2;SDS_P1;SDS_P2;PMS_P1;PMS_P2;Temp;Humidity;BMP_temperature;BMP_pressure;BME280_temperature;BME280_humidity;BME280_pressure;Samples;Min_cycle;Max_cycle;Signal;HPM_P1;HPM_P2
2020/12/29 00:00:16;;;;;;;10.13;6.78;;;;;;;-1.24;100.00;92965.28;1031728;28;20050;-74
2020/12/29 00:00:50;;;;;;;11.32;6.68;;;;;;;-1.28;100.00;92971.84;1027711;28;20061;-73
2020/12/29 00:01:31;;;;;;;9.82;6.47;;;;;;;-1.27;100.00;92960.47;1031891;28;20014;-74
2020/12/29 00:02:02;;;;;;;13.48;7.28;;;;;;;-1.16;100.00;92972.22;1031552;28;20054;-75
2020/12/29 00:02:33;;;;;;;10.70;6.50;;;;;;;-1.11;100.00;92977.69;1031571;28;20030;-73
2020/12/29 00:03:03;;;;;;;9.50;6.15;;;;;;;-1.06;100.00;92975.38;1027302;28;20026;-73
2020/12/29 00:03:34;;;;;;;10.60;6.05;;;;;;;-1.07;100.00;92975.53;1027752;28;20027;-74
2020/12/29 00:04:06;;;;;;;8.82;6.05;;;;;;;-1.09;100.00;92977.53;1027837;28;20019;-75
2020/12/29 00:04:37;;;;;;;9.60;6.15;;;;;;;-1.13;100.00;92971.88;1023734;29;20480;-74
2020/12/29 00:05:08;;;;;;;11.52;6.22;;;;;;;-1.12;100.00;92972.66;1019691;29;20020;-73
2020/12/29 00:05:39;;;;;;;9.20;6.05;;;;;;;-1.17;100.00;92968.81;1027833;28;20065;-74
2020/12/29 00:06:10;;;;;;;10.38;6.13;;;;;;;-1.05;100.00;92976.16;1023714;28;20058;-74
2020/12/29 00:06:51;;;;;;;9.18;5.40;;;;;;;-1.03;100.00;92975.03;1027768;28;20389;-74
2020/12/29 00:07:21;;;;;;;10.40;6.00;;;;;;;-1.01;100.00;92973.03;1027646;28;20486;-74
2020/12/29 00:07:53;;;;;;;9.57;5.45;;;;;;;-1.04;100.00;92972.59;1023850;29;20300;-74
2020/12/29 00:08:26;;;;;;;9.48;5.38;;;;;;;-1.05;100.00;92965.75;1027738;28;20026;-74
2020/12/29 00:08:57;;;;;;;11.10;5.50;;;;;;;-0.98;100.00;92977.88;1023644;29;20382;-73
2020/12/29 00:09:28;;;;;;;9.55;5.75;;;;;;;-1.05;100.00;92961.34;1023807;28;20026;-74
2020/12/29 00:09:58;;;;;;;10.02;5.78;;;;;;;-1.07;100.00;92972.94;1031661;28;20105;-74
2020/12/29 00:10:29;;;;;;;9.18;5.95;;;;;;;-1.06;100.00;92964.97;1019787;29;20024;-74
2020/12/29 00:11:00;;;;;;;7.05;4.68;;;;;;;-0.99;100.00;92972.88;1031623;28;20025;-73
2020/12/29 00:11:30;;;;;;;8.50;4.90;;;;;;;-1.02;100.00;92978.41;1023715;28;20015;-74
2020/12/29 00:12:01;;;;;;;9.07;5.35;;;;;;;-1.02;100.00;92974.00;1023904;29;20028;-74
2020/12/29 00:12:32;;;;;;;9.48;5.55;;;;;;;-1.04;100.00;92973.38;1023819;29;20058;-73
2020/12/29 00:13:03;;;;;;;10.73;5.88;;;;;;;-1.06;100.00;92977.97;1031848;28;20490;-73
2020/12/29 00:13:33;;;;;;;10.25;5.32;;;;;;;-1.02;100.00;92976.63;1023517;29;20027;-73
2020/12/29 00:14:04;;;;;;;10.07;5.45;;;;;;;-0.96;100.00;92981.13;1032181;28;20490;-74
2020/12/29 00:14:35;;;;;;;7.28;5.50;;;;;;;-0.99;100.00;92957.25;1036615;28;20097;-74
2020/12/29 00:15:06;;;;;;;8.98;6.10;;;;;;;-0.92;100.00;92976.34;1028449;28;20455;-74
2020/12/29 00:15:39;;;;;;;14.32;5.35;;;;;;;-0.95;100.00;92979.31;1028493;28;20022;-74
2020/12/29 00:16:10;;;;;;;8.95;5.57;;;;;;;-0.97;100.00;92984.69;1028632;28;20026;-75
2020/12/29 00:16:41;;;;;;;8.25;5.15;;;;;;;-1.01;100.00;92967.00;1024547;29;20058;-74
2020/12/29 00:17:12;;;;;;;8.57;5.45;;;;;;;-1.08;100.00;92956.53;1028519;28;20405;-73
2020/12/29 00:17:43;;;;;;;8.32;5.05;;;;;;;-0.95;100.00;92974.91;1028430;28;20023;-74
2020/12/29 00:18:13;;;;;;;7.82;5.32;;;;;;;-0.94;100.00;92986.16;1028705;28;20092;-74
2020/12/29 00:18:44;;;;;;;8.68;5.13;;;;;;;-1.12;100.00;92975.28;1024879;29;20023;-74
2020/12/29 00:19:18;;;;;;;8.75;5.50;;;;;;;-1.03;100.00;92982.84;1028548;28;20023;-74
2020/12/29 00:19:49;;;;;;;7.95;4.60;;;;;;;-1.05;100.00;92982.19;1028588;28;20097;-73
2020/12/29 00:20:20;;;;;;;7.35;4.53;;;;;;;-1.08;100.00;92968.72;1024690;29;20023;-74
2020/12/29 00:20:51;;;;;;;8.60;5.32;;;;;;;-0.99;100.00;92981.47;1025063;28;20023;-73
2020/12/29 00:21:22;;;;;;;7.20;4.75;;;;;;;-1.01;100.00;93001.69;1034076;28;20026;-73
2020/12/29 00:21:53;;;;;;;8.02;4.95;;;;;;;-1.06;100.00;92993.59;1026089;29;20023;-74
2020/12/29 00:22:24;;;;;;;8.10;4.18;;;;;;;-1.03;100.00;93000.22;1024489;29;20050;-74
2020/12/29 00:22:55;;;;;;;8.80;4.70;;;;;;;-0.99;100.00;92996.31;1024592;29;20019;-74
2020/12/29 00:23:26;;;;;;;8.18;4.80;;;;;;;-0.99;100.00;93009.31;1020564;29;20059;-73
2020/12/29 00:23:57;;;;;;;6.60;3.97;;;;;;;-1.04;100.00;93009.84;1032336;28;20026;-74
2020/12/29 00:24:28;;;;;;;8.10;5.25;;;;;;;-1.02;100.00;93018.28;1032652;28;20022;-74
2020/12/29 00:24:58;;;;;;;8.15;4.53;;;;;;;-0.96;100.00;93001.97;1024477;29;20027;-74
2020/12/29 00:25:30;;;;;;;6.65;4.13;;;;;;;-0.96;100.00;93012.38;1032509;28;20117;-74
2020/12/29 00:26:00;;;;;;;6.95;4.22;;;;;;;-0.91;100.00;93008.41;1028445;28;20072;-73
2020/12/29 00:26:31;;;;;;;8.10;4.28;;;;;;;-0.92;100.00;93009.38;1020519;29;20070;-74
2020/12/29 00:27:02;;;;;;;8.57;4.50;;;;;;;-0.93;100.00;93010.41;1032499;28;20526;-74
2020/12/29 00:27:33;;;;;;;7.38;4.50;;;;;;;-0.96;100.00;92998.53;1024487;29;20507;-74
2020/12/29 00:28:03;;;;;;;7.55;4.47;;;;;;;-1.06;100.00;93004.00;1020416;29;20015;-74
2020/12/29 00:28:34;;;;;;;7.20;4.00;;;;;;;-1.00;100.00;93003.28;1024516;28;20534;-74
2020/12/29 00:29:07;;;;;;;6.53;4.15;;;;;;;-1.05;100.00;93007.41;1024529;29;20023;-74
2020/12/29 00:29:38;;;;;;;8.55;5.05;;;;;;;-1.06;100.00;93011.00;1028346;28;20114;-74
2020/12/29 00:30:09;;;;;;;8.55;4.60;;;;;;;-1.01;100.00;93013.88;1028513;28;20015;-74
2020/12/29 00:30:39;;;;;;;6.68;4.18;;;;;;;-0.93;100.00;93010.41;1032516;28;20014;-74
2020/12/29 00:31:10;;;;;;;7.45;4.05;;;;;;;-0.91;100.00;93004.00;1032493;28;20029;-74
2020/12/29 00:31:41;;;;;;;12.35;4.45;;;;;;;-0.88;100.00;93011.47;1024449;28;20043;-74
2020/12/29 00:32:12;;;;;;;7.32;4.07;;;;;;;-0.97;100.00;93000.31;1028474;28;20051;-73
2020/12/29 00:32:43;;;;;;;9.93;4.07;;;;;;;-0.87;100.00;93005.28;1024503;29;20027;-74
2020/12/29 00:33:13;;;;;;;7.30;4.68;;;;;;;-0.88;100.00;93005.47;1028466;28;20047;-74
2020/12/29 00:33:45;;;;;;;8.05;4.30;;;;;;;-0.97;100.00;92992.50;1028388;28;20026;-74
2020/12/29 00:34:16;;;;;;;8.43;4.07;;;;;;;-0.86;100.00;93006.09;1032362;28;20023;-73
2020/12/29 00:34:47;;;;;;;6.43;4.00;;;;;;;-0.86;100.00;92999.06;1024469;29;20027;-74
2020/12/29 00:35:18;;;;;;;7.78;4.10;;;;;;;-0.80;100.00;93006.19;1028426;28;20126;-74
2020/12/29 00:35:49;;;;;;;6.60;4.45;;;;;;;-0.77;100.00;93002.38;1024494;28;20519;-74
2020/12/29 00:36:20;;;;;;;7.30;4.35;;;;;;;-0.78;100.00;92998.19;1032325;28;20010;-73
2020/12/29 00:36:52;;;;;;;7.15;3.95;;;;;;;-0.86;100.00;93006.88;1028485;28;20464;-74
2020/12/29 00:37:23;;;;;;;6.38;3.85;;;;;;;-0.89;100.00;93003.81;1020464;29;20139;-74
2020/12/29 00:37:53;;;;;;;8.07;4.20;;;;;;;-0.90;100.00;93008.25;1028388;28;20050;-74
2020/12/29 00:38:25;;;;;;;6.45;4.30;;;;;;;-0.90;100.00;93008.25;1020333;29;20095;-74
2020/12/29 00:38:55;;;;;;;6.47;3.90;;;;;;;-0.87;100.00;93015.69;1028554;28;20102;-74
2020/12/29 00:39:26;;;;;;;6.88;3.88;;;;;;;-0.86;100.00;93021.72;1028394;28;20546;-73
2020/12/29 00:39:57;;;;;;;5.75;3.45;;;;;;;-0.86;100.00;93006.88;1032417;28;20409;-74
2020/12/29 00:40:28;;;;;;;7.32;4.10;;;;;;;-0.86;100.00;93008.69;1024322;29;20060;-73
2020/12/29 00:40:58;;;;;;;6.72;3.90;;;;;;;-0.85;100.00;93008.50;1028537;28;20021;-74
2020/12/29 00:41:29;;;;;;;6.32;3.80;;;;;;;-0.77;100.00;93008.44;1032396;28;20494;-74
2020/12/29 00:42:00;;;;;;;6.53;3.97;;;;;;;-0.78;100.00;93012.00;1032395;28;20018;-74
2020/12/29 00:42:33;;;;;;;6.93;3.90;;;;;;;-0.87;100.00;93005.28;1024255;28;20091;-73
2020/12/29 00:43:04;;;;;;;7.55;3.90;;;;;;;-0.80;100.00;93007.94;1024456;28;20027;-74
2020/12/29 00:43:35;;;;;;;7.05;3.85;;;;;;;-0.75;100.00;93008.22;1024538;28;20023;-74
2020/12/29 00:44:06;;;;;;;6.95;3.50;;;;;;;-0.75;100.00;92997.81;1032430;28;20125;-74
2020/12/29 00:44:36;;;;;;;5.57;3.42;;;;;;;-0.79;100.00;93007.78;1024387;29;20113;-73
2020/12/29 00:45:07;;;;;;;5.93;3.70;;;;;;;-0.79;100.00;93005.16;1028477;28;20019;-74
2020/12/29 00:45:38;;;;;;;5.07;3.15;;;;;;;-0.74;100.00;93001.22;1032495;28;20014;-74
2020/12/29 00:46:13;;;;;;;6.13;3.17;;;;;;;-0.78;100.00;92996.38;1028569;28;20023;-74
2020/12/29 00:46:44;;;;;;;5.32;3.30;;;;;;;-0.82;100.00;92986.50;1028260;28;20014;-74
2020/12/29 00:47:17;;;;;;;7.68;3.97;;;;;;;-0.79;100.00;92991.34;1024441;28;20015;-74
2020/12/29 00:47:48;;;;;;;6.25;3.17;;;;;;;-0.89;100.00;92981.19;1024482;29;20023;-74
2020/12/29 00:48:19;;;;;;;7.03;4.18;;;;;;;-0.92;100.00;92985.94;1028296;28;20436;-74
2020/12/29 00:48:50;;;;;;;6.07;3.63;;;;;;;-0.89;100.00;92988.19;1024335;29;20019;-73
2020/12/29 00:49:21;;;;;;;6.38;3.55;;;;;;;-0.83;100.00;92984.88;1020614;29;20063;-74
2020/12/29 00:49:52;;;;;;;6.38;3.33;;;;;;;-0.79;100.00;92986.94;1024363;29;20425;-74
2020/12/29 00:50:22;;;;;;;5.70;3.38;;;;;;;-0.83;100.00;92982.28;1028329;28;20122;-74
2020/12/29 00:50:53;;;;;;;4.95;3.22;;;;;;;-0.87;100.00;92979.22;1024276;28;20382;-73
2020/12/29 00:51:24;;;;;;;6.57;3.53;;;;;;;-0.87;100.00;92981.00;1024473;29;20376;-74
2020/12/29 00:51:55;;;;;;;6.60;3.30;;;;;;;-0.83;100.00;92995.31;1032372;28;20063;-74
2020/12/29 00:52:26;;;;;;;6.63;3.28;;;;;;;-0.80;100.00;92993.16;1032358;28;20030;-74
2020/12/29 00:52:56;;;;;;;7.28;3.35;;;;;;;-0.81;100.00;93008.97;1032230;28;20101;-74
2020/12/29 00:53:37;;;;;;;5.82;3.22;;;;;;;-0.83;100.00;92998.72;1032351;28;20022;-74
2020/12/29 00:54:08;;;;;;;5.25;2.97;;;;;;;-0.74;100.00;92999.44;1032580;28;20097;-74
2020/12/29 00:54:39;;;;;;;4.97;2.92;;;;;;;-0.72;100.00;92984.41;1032378;28;20027;-74
2020/12/29 00:55:10;;;;;;;5.00;2.90;;;;;;;-0.73;100.00;92979.38;1028344;28;20027;-74
2020/12/29 00:55:40;;;;;;;5.35;2.92;;;;;;;-0.77;100.00;92994.56;1036412;28;20109;-74
2020/12/29 00:56:12;;;;;;;5.68;3.20;;;;;;;-0.71;100.00;92999.06;1032495;28;20022;-74
2020/12/29 00:56:42;;;;;;;6.30;2.70;;;;;;;-0.73;100.00;93001.06;1020321;29;20090;-74
2020/12/29 00:57:13;;;;;;;5.25;3.20;;;;;;;-0.71;100.00;93004.28;1024411;29;20145;-73
2020/12/29 00:57:44;;;;;;;6.15;3.40;;;;;;;-0.70;100.00;93000.66;1032322;28;20049;-74
2020/12/29 00:58:15;;;;;;;5.93;3.00;;;;;;;-0.67;100.00;92995.09;1032499;28;20030;-74
2020/12/29 00:58:46;;;;;;;4.47;2.88;;;;;;;-0.62;100.00;92991.97;1024386;28;20478;-74
2020/12/29 00:59:16;;;;;;;5.60;2.65;;;;;;;-0.60;100.00;92995.19;1024272;29;20595;-73
2020/12/29 00:59:47;;;;;;;5.80;2.75;;;;;;;-0.65;100.00;93000.94;1020496;29;20074;-74
2020/12/29 01:00:18;;;;;;;4.80;2.53;;;;;;;-0.68;100.00;92993.50;1032413;28;20022;-74
2020/12/29 01:00:49;;;;;;;4.15;2.28;;;;;;;-0.60;100.00;93005.63;1028362;28;20023;-73
2020/12/29 01:01:19;;;;;;;5.70;2.72;;;;;;;-0.55;100.00;93002.47;1024249;29;20028;-73
2020/12/29 01:01:55;;;;;;;9.32;3.35;;;;;;;-0.57;100.00;93002.66;1020387;29;20027;-74
2020/12/29 01:02:27;;;;;;;5.35;3.10;;;;;;;-0.52;100.00;93002.09;1028344;28;20119;-73
2020/12/29 01:02:57;;;;;;;6.13;2.58;;;;;;;-0.58;100.00;92995.81;1028050;28;20023;-73
2020/12/29 01:03:28;;;;;;;5.18;2.67;;;;;;;-0.56;100.00;93001.66;1024123;29;20113;-74
2020/12/29 01:03:59;;;;;;;4.55;2.70;;;;;;;-0.61;100.00;93014.41;1024420;29;20031;-74
2020/12/29 01:04:30;;;;;;;7.28;2.80;;;;;;;-0.64;100.00;93027.81;1032388;28;20105;-74
2020/12/29 01:05:01;;;;;;;6.10;2.80;;;;;;;-0.60;100.00;93022.06;1032365;28;20022;-74
2020/12/29 01:05:31;;;;;;;6.57;2.60;;;;;;;-0.64;100.00;93028.63;1032273;28;20057;-74
2020/12/29 01:06:02;;;;;;;3.35;2.22;;;;;;;-0.57;100.00;93020.91;1028252;28;20484;-74
2020/12/29 01:06:33;;;;;;;6.03;2.85;;;;;;;-0.54;100.00;93014.50;1032492;28;20105;-74
2020/12/29 01:07:04;;;;;;;3.72;2.17;;;;;;;-0.49;100.00;93010.34;1028239;28;20038;-74
2020/12/29 01:07:38;;;;;;;6.75;2.60;;;;;;;-0.46;100.00;93012.59;1028157;28;20419;-73
2020/12/29 01:08:09;;;;;;;5.93;2.80;;;;;;;-0.44;100.00;93008.00;1028361;28;20058;-74
2020/12/29 01:08:40;;;;;;;5.20;2.75;;;;;;;-0.45;100.00;93014.22;1024294;29;20484;-74
2020/12/29 01:09:10;;;;;;;4.53;2.58;;;;;;;-0.46;100.00;93030.84;1032418;28;20014;-73
2020/12/29 01:09:41;;;;;;;4.15;2.33;;;;;;;-0.52;100.00;93039.41;1028302;28;20033;-73
2020/12/29 01:10:12;;;;;;;3.80;2.30;;;;;;;-0.49;100.00;93033.81;1032370;28;20089;-74
2020/12/29 01:10:43;;;;;;;6.65;2.55;;;;;;;-0.49;100.00;93020.78;1028373;28;20117;-74
2020/12/29 01:11:14;;;;;;;3.50;1.80;;;;;;;-0.42;100.00;93023.47;1024249;29;20059;-73
2020/12/29 01:11:45;;;;;;;4.22;2.42;;;;;;;-0.44;100.00;93018.44;1028208;28;20015;-73
2020/12/29 01:12:16;;;;;;;6.13;2.88;;;;;;;-0.46;100.00;93030.06;1028307;28;20030;-73
2020/12/29 01:12:46;;;;;;;4.82;2.88;;;;;;;-0.53;100.00;93011.72;1028357;28;20025;-74
2020/12/29 01:13:17;;;;;;;4.93;2.95;;;;;;;-0.45;100.00;93018.66;1028233;28;20065;-74
2020/12/29 01:13:48;;;;;;;6.55;2.92;;;;;;;-0.46;100.00;93007.38;1024121;29;20058;-74
2020/12/29 01:14:19;;;;;;;5.10;2.83;;;;;;;-0.37;100.00;93018.53;1028285;28;20019;-74
2020/12/29 01:14:50;;;;;;;4.32;2.55;;;;;;;-0.44;100.00;93015.81;1020563;29;20031;-75
2020/12/29 01:15:21;;;;;;;4.47;2.17;;;;;;;-0.41;100.00;93014.66;1024309;29;20019;-74
2020/12/29 01:15:52;;;;;;;3.15;2.20;;;;;;;-0.37;100.00;93018.53;1024121;29;20106;-74
2020/12/29 01:16:22;;;;;;;4.78;2.50;;;;;;;-0.41;100.00;93006.84;1032230;28;20030;-74
2020/12/29 01:16:53;;;;;;;4.05;2.03;;;;;;;-0.37;100.00;93015.91;1036441;28;20018;-74
2020/12/29 01:17:24;;;;;;;5.80;2.95;;;;;;;-0.39;100.00;93012.69;1032424;28;20026;-74
2020/12/29 01:17:55;;;;;;;5.05;2.42;;;;;;;-0.40;100.00;93016.28;1032379;28;20018;-73
2020/12/29 01:18:26;;;;;;;4.03;2.33;;;;;;;-0.41;100.00;92999.03;1024697;29;20476;-74
2020/12/29 01:18:56;;;;;;;4.53;2.42;;;;;;;-0.41;100.00;92994.63;1028453;28;20031;-74
2020/12/29 01:19:27;;;;;;;4.80;2.38;;;;;;;-0.37;100.00;92995.06;1032471;28;20356;-74
2020/12/29 01:19:58;;;;;;;4.15;2.20;;;;;;;-0.41;100.00;92999.03;1028210;28;20022;-73
2020/12/29 01:20:29;;;;;;;4.30;2.00;;;;;;;-0.46;100.00;92981.31;1024476;29;20055;-74
2020/12/29 01:21:00;;;;;;;3.55;1.90;;;;;;;-0.44;100.00;92968.13;1024543;29;20098;-74
2020/12/29 01:21:31;;;;;;;4.72;2.25;;;;;;;-0.36;100.00;92975.84;1032549;28;20022;-74
2020/12/29 01:22:01;;;;;;;3.65;2.00;;;;;;;-0.33;100.00;92980.69;1024521;29;20126;-73
2020/12/29 01:22:32;;;;;;;3.42;2.10;;;;;;;-0.27;100.00;92982.53;1028501;28;20052;-73
2020/12/29 01:23:03;;;;;;;3.85;1.90;;;;;;;-0.28;100.00;92983.56;1036656;28;20103;-74
2020/12/29 01:23:33;;;;;;;4.25;2.15;;;;;;;-0.49;100.00;92955.63;1028650;28;20034;-74
2020/12/29 01:24:04;;;;;;;4.78;1.90;;;;;;;-0.30;100.00;92988.13;1028804;28;20027;-73
2020/12/29 01:24:35;;;;;;;4.38;2.30;;;;;;;-0.29;100.00;92994.97;1028708;28;20098;-74
2020/12/29 01:25:05;;;;;;;4.20;1.90;;;;;;;-0.26;100.00;92997.22;1028670;28;20019;-74
2020/12/29 01:25:41;;;;;;;4.65;2.15;;;;;;;-0.19;100.00;92992.06;1032096;28;20077;-74
2020/12/29 01:26:12;;;;;;;3.90;2.20;;;;;;;-0.23;100.00;92981.19;1028522;28;20435;-74
2020/12/29 01:26:43;;;;;;;3.78;1.98;;;;;;;-0.14;100.00;92994.09;1029001;28;20049;-74
2020/12/29 01:27:13;;;;;;;4.63;2.28;;;;;;;-0.16;100.00;92996.09;1024826;28;20030;-74
2020/12/29 01:27:45;;;;;;;3.30;1.90;;;;;;;-0.17;100.00;93005.72;1028902;28;20037;-74
2020/12/29 01:28:15;;;;;;;4.85;2.17;;;;;;;-0.12;100.00;93002.56;1024872;29;20027;-73
2020/12/29 01:28:46;;;;;;;5.30;2.20;;;;;;;-0.14;100.00;92996.72;1024742;29;20050;-74
2020/12/29 01:29:17;;;;;;;5.05;1.92;;;;;;;-0.16;100.00;92999.50;1024987;29;20095;-74
2020/12/29 01:29:48;;;;;;;4.15;2.00;;;;;;;-0.20;100.00;92978.22;1025104;29;20082;-74
2020/12/29 01:30:18;;;;;;;3.63;1.92;;;;;;;-0.17;100.00;92984.03;1024652;29;20444;-74
2020/12/29 01:30:49;;;;;;;4.18;2.40;;;;;;;-0.12;100.00;92992.94;1028836;28;20029;-74
2020/12/29 01:31:29;;;;;;;3.83;2.10;;;;;;;-0.11;100.00;92991.94;1024980;29;20027;-74
2020/12/29 01:32:00;;;;;;;4.07;2.03;;;;;;;-0.19;100.00;92976.44;1028851;28;20031;-74
2020/12/29 01:32:30;;;;;;;3.20;1.90;;;;;;;-0.14;100.00;92981.06;1028830;28;20026;-73
2020/12/29 01:33:01;;;;;;;4.07;1.98;;;;;;;-0.19;100.00;92994.69;1028779;28;20023;-74
2020/12/29 01:33:32;;;;;;;4.72;2.40;;;;;;;-0.16;100.00;93002.09;1028794;28;20026;-74
2020/12/29 01:34:03;;;;;;;3.60;2.10;;;;;;;-0.21;100.00;92986.22;1028847;28;20023;-74
2020/12/29 01:34:34;;;;;;;3.78;1.92;;;;;;;-0.11;100.00;92997.16;1028707;28;20477;-74
2020/12/29 01:35:06;;;;;;;4.68;2.20;;;;;;;-0.10;100.00;92998.78;1028907;28;20019;-74
2020/12/29 01:35:36;;;;;;;3.85;1.90;;;;;;;-0.18;100.00;92987.66;1028824;28;20123;-74
2020/12/29 01:36:09;;;;;;;3.90;2.00;;;;;;;-0.21;100.00;93002.69;1028896;28;20030;-73
2020/12/29 01:36:40;;;;;;;5.22;2.10;;;;;;;-0.13;100.00;92996.53;1032772;28;20077;-73
2020/12/29 01:37:10;;;;;;;5.00;2.17;;;;;;;-0.12;100.00;92998.16;1028725;28;20105;-74
2020/12/29 01:37:42;;;;;;;3.88;2.25;;;;;;;-0.18;100.00;92990.25;1028768;28;20066;-74
2020/12/29 01:38:13;;;;;;;5.85;2.17;;;;;;;-0.13;100.00;92998.34;1032858;28;20018;-74
2020/12/29 01:38:44;;;;;;;3.90;1.98;;;;;;;-0.14;100.00;92997.53;1028762;28;20110;-73
2020/12/29 01:39:15;;;;;;;3.97;2.03;;;;;;;-0.13;100.00;93003.56;1024912;29;20050;-74
2020/12/29 01:39:45;;;;;;;3.95;2.15;;;;;;;-0.11;100.00;92998.97;1024876;29;20023;-74
2020/12/29 01:40:16;;;;;;;3.08;1.73;;;;;;;-0.12;100.00;93002.56;1032802;28;20022;-73
2020/12/29 01:40:47;;;;;;;4.68;2.30;;;;;;;-0.13;100.00;93003.56;1028851;28;20022;-74
2020/12/29 01:41:19;;;;;;;3.72;1.90;;;;;;;-0.11;100.00;93010.19;1028774;28;20467;-74
2020/12/29 01:41:49;;;;;;;5.15;2.08;;;;;;;-0.06;100.00;93004.44;1024791;29;20039;-74
2020/12/29 01:42:20;;;;;;;4.32;1.90;;;;;;;-0.04;100.00;92994.63;1032582;28;20026;-74
2020/12/29 01:42:51;;;;;;;3.67;1.98;;;;;;;-0.01;100.00;92994.25;1032454;28;20061;-74
2020/12/29 01:43:27;;;;;;;4.57;2.10;;;;;;;-0.05;100.00;93006.06;1036501;28;20121;-74
2020/12/29 01:44:16;;;;;;;3.13;1.70;;;;;;;-0.06;100.00;93007.84;1036742;28;20064;-74
2020/12/29 01:44:46;;;;;;;4.10;1.67;;;;;;;-0.03;100.00;93011.91;1032548;28;20480;-73
2020/12/29 01:45:20;;;;;;;3.10;1.85;;;;;;;-0.12;100.00;93023.41;1028403;28;20022;-74
2020/12/29 01:45:51;;;;;;;4.43;1.83;;;;;;;-0.08;100.00;93024.69;1028556;28;20057;-74
2020/12/29 01:46:21;;;;;;;4.05;1.92;;;;;;;-0.05;100.00;93013.88;1020463;29;20082;-74
2020/12/29 01:46:53;;;;;;;4.47;2.00;;;;;;;0.00;100.00;93011.53;1028218;28;20400;-73
2020/12/29 01:47:24;;;;;;;4.15;1.90;;;;;;;-0.03;100.00;92993.63;1020317;29;20024;-74
2020/12/29 01:47:55;;;;;;;3.28;1.70;;;;;;;-0.07;100.00;92994.97;1032372;28;20093;-74
2020/12/29 01:48:26;;;;;;;3.35;1.85;;;;;;;-0.07;100.00;93010.63;1028430;28;20025;-74
2020/12/29 01:48:57;;;;;;;3.08;1.73;;;;;;;-0.03;100.00;93017.13;1028027;28;20093;-73
2020/12/29 01:49:28;;;;;;;4.53;2.33;;;;;;;-0.04;100.00;93015.47;1028257;28;20023;-74
2020/12/29 01:49:58;;;;;;;3.50;1.90;;;;;;;-0.05;100.00;92998.25;1020230;29;20385;-74
2020/12/29 01:50:29;;;;;;;3.00;1.75;;;;;;;-0.09;100.00;92981.31;1024362;29;20086;-74
2020/12/29 01:51:00;;;;;;;4.57;2.03;;;;;;;-0.12;100.00;93002.56;1028095;28;20101;-73
2020/12/29 01:51:31;;;;;;;4.57;1.90;;;;;;;-0.12;100.00;93007.75;1020260;29;20027;-73
2020/12/29 01:52:02;;;;;;;2.60;1.63;;;;;;;-0.05;100.00;93022.50;1028176;28;20482;-74
2020/12/29 01:52:32;;;;;;;4.40;1.75;;;;;;;-0.08;100.00;93007.22;1028200;28;20030;-73
2020/12/29 01:53:03;;;;;;;2.80;1.65;;;;;;;-0.20;100.00;92986.03;1028041;28;20548;-73
2020/12/29 01:53:38;;;;;;;3.75;2.00;;;;;;;0.02;100.00;93014.75;1028023;28;20114;-74
2020/12/29 01:54:09;;;;;;;5.32;2.63;;;;;;;0.02;100.00;93017.38;1036296;28;20056;-74
2020/12/29 01:54:40;;;;;;;3.47;1.75;;;;;;;0.06;100.00;93008.16;1028160;28;20022;-74
2020/12/29 01:55:11;;;;;;;3.78;2.00;;;;;;;0.05;100.00;92997.91;1032174;28;20008;-74
2020/12/29 01:55:42;;;;;;;2.83;1.63;;;;;;;0.05;100.00;92998.72;1028178;28;20014;-74
2020/12/29 01:56:13;;;;;;;2.65;1.60;;;;;;;0.01;100.00;93007.13;1028185;28;20026;-74
2020/12/29 01:56:44;;;;;;;3.53;1.77;;;;;;;0.04;100.00;93017.19;1036209;28;20092;-74
2020/12/29 01:57:14;;;;;;;3.15;1.60;;;;;;;0.04;100.00;93015.38;1032145;28;20544;-74
2020/12/29 01:57:45;;;;;;;4.60;1.90;;;;;;;0.05;100.00;92998.72;1028209;28;20011;-73
2020/12/29 01:58:16;;;;;;;3.13;1.65;;;;;;;0.08;100.00;93003.56;1028225;28;20014;-74
2020/12/29 01:58:47;;;;;;;3.35;1.60;;;;;;;0.08;100.00;93003.56;1024236;29;20026;-74
2020/12/29 01:59:18;;;;;;;1.58;1.27;;;;;;;0.18;100.00;93008.50;1036154;28;20398;-73
2020/12/29 01:59:50;;;;;;;3.75;1.35;;;;;;;0.25;100.00;93019.00;1032072;28;20030;-74
2020/12/29 02:00:20;;;;;;;2.50;1.30;;;;;;;0.37;100.00;93017.50;1028155;28;20015;-74
2020/12/29 02:00:51;;;;;;;2.42;1.15;;;;;;;0.38;100.00;93019.09;1024309;29;20431;-74
2020/12/29 02:01:22;;;;;;;2.10;1.20;;;;;;;0.40;100.00;93029.38;1028080;28;20011;-73
2020/12/29 02:01:53;;;;;;;1.67;1.00;;;;;;;0.41;100.00;93034.41;1031991;28;20446;-74
2020/12/29 02:02:24;;;;;;;2.40;0.90;;;;;;;0.46;100.00;93026.03;1032222;28;20030;-73
2020/12/29 02:02:56;;;;;;;4.03;1.42;;;;;;;0.45;100.00;93014.75;1031728;28;20026;-73
2020/12/29 02:03:27;;;;;;;3.38;1.60;;;;;;;0.23;100.00;92990.47;1036019;28;20536;-74
2020/12/29 02:03:58;;;;;;;2.53;1.20;;;;;;;0.49;100.00;93018.63;1024072;28;20067;-74
2020/12/29 02:04:28;;;;;;;1.55;1.00;;;;;;;0.52;100.00;93031.31;1028167;28;20034;-74
2020/12/29 02:04:59;;;;;;;2.28;1.20;;;;;;;0.50;100.00;93025.44;1024141;29;20023;-74
2020/12/29 02:05:30;;;;;;;2.60;1.20;;;;;;;0.49;100.00;93031.66;1020186;29;20027;-74
2020/12/29 02:06:01;;;;;;;2.35;1.15;;;;;;;0.53;100.00;93030.28;1028011;28;20042;-74
2020/12/29 02:06:33;;;;;;;2.72;1.27;;;;;;;0.48;100.00;93031.84;1024043;29;20027;-74
2020/12/29 02:07:04;;;;;;;2.45;1.25;;;;;;;0.47;100.00;93036.28;1028101;28;20447;-74
2020/12/29 02:07:35;;;;;;;2.25;1.27;;;;;;;0.52;100.00;93049.56;1032045;28;20105;-74
2020/12/29 02:08:07;;;;;;;2.90;1.30;;;;;;;0.44;100.00;93044.47;1032171;28;20030;-74
2020/12/29 02:08:38;;;;;;;2.17;1.10;;;;;;;0.50;100.00;93048.13;1024195;28;20035;-74
2020/12/29 02:09:09;;;;;;;2.45;1.17;;;;;;;0.54;100.00;93052.81;1028232;28;20027;-74
2020/12/29 02:09:40;;;;;;;2.30;1.40;;;;;;;0.50;100.00;93048.94;1028009;28;20570;-73
2020/12/29 02:10:11;;;;;;;3.08;1.42;;;;;;;0.53;100.00;93063.44;1023974;29;20027;-74
2020/12/29 02:10:42;;;;;;;2.60;1.60;;;;;;;0.58;100.00;93062.88;1024036;28;20083;-74
2020/12/29 02:11:12;;;;;;;2.45;1.38;;;;;;;0.57;100.00;93062.06;1020183;29;20027;-74
2020/12/29 02:11:43;;;;;;;2.95;1.40;;;;;;;0.54;100.00;93065.84;1028030;28;20460;-74
2020/12/29 02:12:22;;;;;;;3.03;1.55;;;;;;;0.46;100.00;93058.16;1027940;28;20519;-73
2020/12/29 02:12:52;;;;;;;2.45;1.30;;;;;;;0.24;100.00;93033.81;1024149;29;20535;-74
2020/12/29 02:13:23;;;;;;;1.83;1.30;;;;;;;0.40;100.00;93061.50;1028064;28;20033;-74
2020/12/29 02:13:54;;;;;;;2.55;1.38;;;;;;;0.43;100.00;93062.94;1023834;28;20046;-74
2020/12/29 02:14:25;;;;;;;2.33;1.23;;;;;;;0.40;100.00;93077.19;1024108;29;20110;-74
2020/12/29 02:14:56;;;;;;;3.92;1.67;;;;;;;0.35;100.00;93069.88;1028083;28;20077;-75
2020/12/29 02:15:26;;;;;;;3.25;1.63;;;;;;;0.33;100.00;93060.63;1028102;28;20065;-73
2020/12/29 02:15:57;;;;;;;2.85;1.52;;;;;;;0.41;100.00;93068.34;1024129;29;20029;-73
2020/12/29 02:16:28;;;;;;;3.33;1.60;;;;;;;0.39;100.00;93072.94;1028082;28;20018;-74
2020/12/29 02:16:59;;;;;;;3.40;1.50;;;;;;;0.36;100.00;93068.88;1028084;28;20112;-74
2020/12/29 02:17:29;;;;;;;3.17;1.42;;;;;;;0.32;100.00;93067.66;1024264;29;20110;-74
2020/12/29 02:18:00;;;;;;;3.50;1.70;;;;;;;0.42;100.00;93069.97;1028059;28;20420;-74
2020/12/29 02:18:32;;;;;;;3.38;1.52;;;;;;;0.39;100.00;93072.94;1024035;29;20523;-73
2020/12/29 02:19:05;;;;;;;2.47;1.40;;;;;;;0.40;100.00;93074.56;1028133;28;20377;-74
2020/12/29 02:19:36;;;;;;;3.63;1.58;;;;;;;0.41;100.00;93073.56;1028108;28;20022;-74
2020/12/29 02:20:07;;;;;;;2.63;1.40;;;;;;;0.43;100.00;93073.38;1031993;28;20070;-74
2020/12/29 02:20:38;;;;;;;2.95;1.77;;;;;;;0.38;100.00;93066.09;1023947;28;20027;-74
2020/12/29 02:21:09;;;;;;;2.22;1.38;;;;;;;0.28;100.00;93066.41;1024177;29;20062;-74
2020/12/29 02:21:40;;;;;;;2.63;1.40;;;;;;;0.01;100.00;93018.34;1024130;29;20019;-74
2020/12/29 02:22:11;;;;;;;3.08;1.48;;;;;;;0.33;100.00;93064.06;1031937;28;20034;-73
2020/12/29 02:22:42;;;;;;;2.60;1.52;;;;;;;0.26;100.00;93057.13;1031996;28;20023;-73
2020/12/29 02:23:13;;;;;;;3.65;1.90;;;;;;;0.25;100.00;93068.59;1032081;28;20057;-74
2020/12/29 02:23:44;;;;;;;4.18;1.65;;;;;;;0.21;100.00;93064.72;1024049;28;20019;-74
2020/12/29 02:24:15;;;;;;;3.55;1.95;;;;;;;0.20;100.00;93073.53;1031934;28;20023;-74
2020/12/29 02:24:48;;;;;;;2.65;1.80;;;;;;;0.15;100.00;93067.06;1023901;28;20392;-73
2020/12/29 02:25:19;;;;;;;3.67;1.80;;;;;;;0.12;100.00;93066.63;1028048;28;20029;-74
2020/12/29 02:25:50;;;;;;;2.83;1.52;;;;;;;0.11;100.00;93076.25;1024167;29;20034;-74